C35

Reedsburg Municipal Airport

Reedsburg, Wisconsin, USA
METAR KC35 210915Z AUTO 00000KT 10SM CLR M01/M02 A3043 RMK AO2 T10091025
Observed Flight Rules
Apr-21 @ 09:15 UTC (12 minutes ago) Visual Flight Rules
Visibility Clouds
10 miles
  • Clear skies
Temperatures Readings
Current -1°C / 30°F
Dewpoint -3°C / 27°F
Humidity 86%
Altimeter 30.43" Hg
Pressure 1030 hPa
Elevation 276
METAR KC35 210915Z AUTO 00000KT 10SM CLR M01/M02 A3043 RMK AO2 T10091025
Observed Flight Rules
Apr-21 @ 09:15 UTC
(12 minutes ago)
VFR
Clouds
  • Clear skies
Temperature Dewpoint
-1°C / 30°F -3°C / 27°F
Humidity Altimeter Pressure
86% 30.43" Hg 1030 hPa